<?xml version="1.0" encoding="utf-8"?>
<gpx xmlns:xsi="http://www.w3.org/2001/XMLSchema-instance" xmlns:xsd="http://www.w3.org/2001/XMLSchema" version="1.1" creator="Shapelink.com" xmlns="http://www.topografix.com/GPX/1/1" xmlns:gpxtpx="http://www.garmin.com/xmlschemas/TrackPointExtension/v1">
  <metadata>
    <name>Övrigt 1.55 km, 2020-06-21</name>
    <desc></desc>
    <author><name>Marian Moron</name></author> 
    <time>2020-06-21T20:12:12Z</time>
  </metadata>
  <trk>
    <name>Övrigt 1.55 km, 2020-06-21</name>
    <trkseg>
      <trkpt lat="51.229804164038" lon="4.458119039188">
        <ele>0</ele>
        <time>2020-06-21T20:12:12Z</time>
      </trkpt>
      <trkpt lat="51.229842888416" lon="4.457391071173">
        <ele>0</ele>
        <time>2020-06-21T20:13:15Z</time>
      </trkpt>
      <trkpt lat="51.229837691638" lon="4.457301384843">
        <ele>0.2</ele>
        <time>2020-06-21T20:13:24Z</time>
      </trkpt>
      <trkpt lat="51.229821263114" lon="4.457097453216">
        <ele>0</ele>
        <time>2020-06-21T20:13:40Z</time>
      </trkpt>
      <trkpt lat="51.229789411894" lon="4.456831746986">
        <ele>2.8</ele>
        <time>2020-06-21T20:14:00Z</time>
      </trkpt>
      <trkpt lat="51.229941291922" lon="4.456577356321">
        <ele>7.2</ele>
        <time>2020-06-21T20:14:27Z</time>
      </trkpt>
      <trkpt lat="51.230387963373" lon="4.456491022751">
        <ele>5.6</ele>
        <time>2020-06-21T20:15:04Z</time>
      </trkpt>
      <trkpt lat="51.230861205447" lon="4.456591773189">
        <ele>10.2</ele>
        <time>2020-06-21T20:15:44Z</time>
      </trkpt>
      <trkpt lat="51.231030855103" lon="4.456152896905">
        <ele>7</ele>
        <time>2020-06-21T20:16:14Z</time>
      </trkpt>
      <trkpt lat="51.231261692629" lon="4.456136300743">
        <ele>4</ele>
        <time>2020-06-21T20:16:59Z</time>
      </trkpt>
      <trkpt lat="51.23141164482" lon="4.45622707672">
        <ele>1</ele>
        <time>2020-06-21T20:17:34Z</time>
      </trkpt>
      <trkpt lat="51.231574337499" lon="4.456304357838">
        <ele>0</ele>
        <time>2020-06-21T20:18:17Z</time>
      </trkpt>
      <trkpt lat="51.231974489405" lon="4.456645501168">
        <ele>0</ele>
        <time>2020-06-21T20:18:52Z</time>
      </trkpt>
      <trkpt lat="51.232251846476" lon="4.456740132819">
        <ele>0</ele>
        <time>2020-06-21T20:19:26Z</time>
      </trkpt>
      <trkpt lat="51.232225862586" lon="4.45631089572">
        <ele>5.8</ele>
        <time>2020-06-21T20:19:58Z</time>
      </trkpt>
      <trkpt lat="51.232177163747" lon="4.455876964757">
        <ele>10.6</ele>
        <time>2020-06-21T20:20:23Z</time>
      </trkpt>
      <trkpt lat="51.232096781326" lon="4.455493995746">
        <ele>10.4</ele>
        <time>2020-06-21T20:20:49Z</time>
      </trkpt>
      <trkpt lat="51.231957390329" lon="4.454818246968">
        <ele>8.4</ele>
        <time>2020-06-21T20:21:30Z</time>
      </trkpt>
      <trkpt lat="51.2319497628" lon="4.454747252275">
        <ele>8</ele>
        <time>2020-06-21T20:21:35Z</time>
      </trkpt>
      <trkpt lat="51.23188773674" lon="4.454371743155">
        <ele>7.4</ele>
        <time>2020-06-21T20:21:57Z</time>
      </trkpt>
      <trkpt lat="51.231874912433" lon="4.454285409585">
        <ele>7.4</ele>
        <time>2020-06-21T20:22:23Z</time>
      </trkpt>
      <trkpt lat="51.231820765359" lon="4.454031773291">
        <ele>4.8</ele>
        <time>2020-06-21T20:22:42Z</time>
      </trkpt>
      <trkpt lat="51.231750692675" lon="4.453963460806">
        <ele>3</ele>
        <time>2020-06-21T20:22:50Z</time>
      </trkpt>
      <trkpt lat="51.231429330629" lon="4.454030683644">
        <ele>1.6</ele>
        <time>2020-06-21T20:23:17Z</time>
      </trkpt>
      <trkpt lat="51.231105621651" lon="4.454270992717">
        <ele>3.4</ele>
        <time>2020-06-21T20:24:26Z</time>
      </trkpt>
      <trkpt lat="51.231187680452" lon="4.454644909276">
        <ele>2.2</ele>
        <time>2020-06-21T20:24:46Z</time>
      </trkpt>
      <trkpt lat="51.231208551383" lon="4.454843811763">
        <ele>2.2</ele>
        <time>2020-06-21T20:24:56Z</time>
      </trkpt>
      <trkpt lat="51.231248533046" lon="4.455126449431">
        <ele>0.4</ele>
        <time>2020-06-21T20:25:11Z</time>
      </trkpt>
      <trkpt lat="51.231245767019" lon="4.455158133013">
        <ele>0.8</ele>
        <time>2020-06-21T20:25:13Z</time>
      </trkpt>
      <trkpt lat="51.231253394548" lon="4.455302720788">
        <ele>5.4</ele>
        <time>2020-06-21T20:25:25Z</time>
      </trkpt>
      <trkpt lat="51.231321623214" lon="4.455867744667">
        <ele>10.8</ele>
        <time>2020-06-21T20:25:58Z</time>
      </trkpt>
      <trkpt lat="51.231105202556" lon="4.455921053551">
        <ele>5.6</ele>
        <time>2020-06-21T20:26:13Z</time>
      </trkpt>
      <trkpt lat="51.231001686091" lon="4.456044267481">
        <ele>5.4</ele>
        <time>2020-06-21T20:26:28Z</time>
      </trkpt>
      <trkpt lat="51.230756850792" lon="4.456409215407">
        <ele>8.6</ele>
        <time>2020-06-21T20:27:05Z</time>
      </trkpt>
      <trkpt lat="51.230608072067" lon="4.456473756037">
        <ele>5.4</ele>
        <time>2020-06-21T20:27:31Z</time>
      </trkpt>
      <trkpt lat="51.230311352807" lon="4.456601580012">
        <ele>5</ele>
        <time>2020-06-21T20:28:15Z</time>
      </trkpt>
      <trkpt lat="51.230143882445" lon="4.456702498088">
        <ele>3.2</ele>
        <time>2020-06-21T20:28:46Z</time>
      </trkpt>
      <trkpt lat="51.230058219427" lon="4.456655475629">
        <ele>2.8</ele>
        <time>2020-06-21T20:28:56Z</time>
      </trkpt>
      <trkpt lat="51.229997366833" lon="4.456538129029">
        <ele>5.4</ele>
        <time>2020-06-21T20:29:05Z</time>
      </trkpt>
      <trkpt lat="51.229908853969" lon="4.456558580865">
        <ele>5</ele>
        <time>2020-06-21T20:29:16Z</time>
      </trkpt>
      <trkpt lat="51.229832830136" lon="4.45660174765">
        <ele>4.6</ele>
        <time>2020-06-21T20:29:40Z</time>
      </trkpt>
      <trkpt lat="51.229807516798" lon="4.456614069043">
        <ele>4.8</ele>
        <time>2020-06-21T20:29:43Z</time>
      </trkpt>
      <trkpt lat="51.229534685953" lon="4.456879356178">
        <ele>15.6</ele>
        <time>2020-06-21T20:31:17Z</time>
      </trkpt>
      <trkpt lat="51.22907728567" lon="4.456889079182">
        <ele>34</ele>
        <time>2020-06-21T20:32:03Z</time>
      </trkpt>
      <trkpt lat="51.22890042758" lon="4.45701078437">
        <ele>26.8</ele>
        <time>2020-06-21T20:32:48Z</time>
      </trkpt>
      <trkpt lat="51.228537323672" lon="4.457346982379">
        <ele>19.2</ele>
        <time>2020-06-21T20:33:31Z</time>
      </trkpt>
      <trkpt lat="51.22856431339" lon="4.457745457905">
        <ele>5.2</ele>
        <time>2020-06-21T20:34:18Z</time>
      </trkpt>
      <trkpt lat="51.228611419668" lon="4.458104706139">
        <ele>3.2</ele>
        <time>2020-06-21T20:34:38Z</time>
      </trkpt>
      <trkpt lat="51.228631787685" lon="4.458435455913">
        <ele>6</ele>
        <time>2020-06-21T20:35:10Z</time>
      </trkpt>
      <trkpt lat="51.228674870651" lon="4.45866034229">
        <ele>3.6</ele>
        <time>2020-06-21T20:35:29Z</time>
      </trkpt>
      <trkpt lat="51.228687778777" lon="4.458896879508">
        <ele>5.2</ele>
        <time>2020-06-21T20:35:45Z</time>
      </trkpt>
      <trkpt lat="51.228643773802" lon="4.459134841649">
        <ele>6.8</ele>
        <time>2020-06-21T20:36:07Z</time>
      </trkpt>
      <trkpt lat="51.228575126041" lon="4.459022691827">
        <ele>6.8</ele>
        <time>2020-06-21T20:36:39Z</time>
      </trkpt>
      <trkpt lat="51.228578227344" lon="4.458942057949">
        <ele>8</ele>
        <time>2020-06-21T20:36:47Z</time>
      </trkpt>
      <trkpt lat="51.228569174892" lon="4.45889838825">
        <ele>7.6</ele>
        <time>2020-06-21T20:36:50Z</time>
      </trkpt>
      <trkpt lat="51.228562134096" lon="4.458788920636">
        <ele>8.2</ele>
        <time>2020-06-21T20:36:59Z</time>
      </trkpt>
      <trkpt lat="51.228542268993" lon="4.458604099741">
        <ele>6</ele>
        <time>2020-06-21T20:37:16Z</time>
      </trkpt>
      <trkpt lat="51.228606558166" lon="4.458492620471">
        <ele>4.2</ele>
        <time>2020-06-21T20:37:26Z</time>
      </trkpt>
      <trkpt lat="51.228627093821" lon="4.458451213885">
        <ele>2.8</ele>
        <time>2020-06-21T20:37:30Z</time>
      </trkpt>
      <trkpt lat="51.228615359161" lon="4.458340824262">
        <ele>0.4</ele>
        <time>2020-06-21T20:37:39Z</time>
      </trkpt>
      <trkpt lat="51.228691969727" lon="4.458280726039">
        <ele>0</ele>
        <time>2020-06-21T20:37:48Z</time>
      </trkpt>
      <trkpt lat="51.229135456056" lon="4.458110322012">
        <ele>0</ele>
        <time>2020-06-21T20:38:32Z</time>
      </trkpt>
      <trkpt lat="51.229582546602" lon="4.458012086144">
        <ele>1</ele>
        <time>2020-06-21T20:39:16Z</time>
      </trkpt>
      <trkpt lat="51.229703329781" lon="4.457941007632">
        <ele>0</ele>
        <time>2020-06-21T20:40:15Z</time>
      </trkpt>
    </trkseg>
  </trk>
</gpx>